Lester, Pennsylvania
Current Conditions -  °F | °C
As of 6:54 PM on Saturday 22 Nov 2014 (Local Time) from KPHL Reporting Station
Overcast Overcast  
Wind Chill: 38°   Ceiling: 7000
Heat Index: 44°   Visibility: 10mi
Dew Point: 21°   Wind: 12mph
Humidity: 40%   Direction: 210°SSW
Pressure: 30.31"   Gusts: NA
Location:  39.867°N, 75.284°W
Report Text: KPHL 222354Z 21010KT 10SM BKN070 OVC085 07/M06 A3031 RMK AO2 SLP261 60000 T00671061 10078 20061 56007 $
Loading
Personal Weather Stations






























Interactive Weather Map New forecast layout! Learn more

10-Day Weather Forecast

Advertisements
Track Severe Weather on mobile